sensor_id;sensor_type;location;lat;lon;timestamp;pressure;altitude;pressure_sealevel;temperature;humidity
14273;BME280;7220;49.450;11.052;2023-02-23T00:03:11;97776.41;;;10.17;89.88
14273;BME280;7220;49.450;11.052;2023-02-23T00:07:11;97777.34;;;10.16;90.70
14273;BME280;7220;49.450;11.052;2023-02-23T00:11:13;97776.97;;;10.22;89.31
14273;BME280;7220;49.450;11.052;2023-02-23T00:15:14;97780.59;;;10.21;89.65
14273;BME280;7220;49.450;11.052;2023-02-23T00:19:14;97778.19;;;10.17;90.58
14273;BME280;7220;49.450;11.052;2023-02-23T00:23:15;97775.66;;;10.15;90.10
14273;BME280;7220;49.450;11.052;2023-02-23T00:27:15;97766.94;;;10.27;89.31
14273;BME280;7220;49.450;11.052;2023-02-23T00:31:21;97757.81;;;10.17;90.11
14273;BME280;7220;49.450;11.052;2023-02-23T00:35:24;97762.16;;;10.18;90.58
14273;BME280;7220;49.450;11.052;2023-02-23T00:39:24;97772.22;;;10.13;90.35
14273;BME280;7220;49.450;11.052;2023-02-23T00:43:27;97771.53;;;10.09;90.96
14273;BME280;7220;49.450;11.052;2023-02-23T00:47:28;97773.94;;;9.98;91.81
14273;BME280;7220;49.450;11.052;2023-02-23T00:51:28;97776.19;;;10.06;91.08
14273;BME280;7220;49.450;11.052;2023-02-23T00:55:31;97779.00;;;10.03;90.52
14273;BME280;7220;49.450;11.052;2023-02-23T00:59:32;97771.75;;;9.90;91.52
14273;BME280;7220;49.450;11.052;2023-02-23T01:03:32;97781.06;;;9.98;91.14
14273;BME280;7220;49.450;11.052;2023-02-23T01:07:32;97771.94;;;9.87;91.98
14273;BME280;7220;49.450;11.052;2023-02-23T01:11:33;97768.84;;;9.79;92.50
14273;BME280;7220;49.450;11.052;2023-02-23T01:15:33;97776.41;;;9.87;92.25
14273;BME280;7220;49.450;11.052;2023-02-23T01:19:34;97771.50;;;9.79;93.00
14273;BME280;7220;49.450;11.052;2023-02-23T01:23:34;97771.50;;;9.79;92.46
14273;BME280;7220;49.450;11.052;2023-02-23T01:27:35;97774.34;;;9.76;92.37
14273;BME280;7220;49.450;11.052;2023-02-23T01:31:37;97774.34;;;9.60;93.49
14273;BME280;7220;49.450;11.052;2023-02-23T01:35:38;97781.63;;;9.56;93.32
14273;BME280;7220;49.450;11.052;2023-02-23T01:39:38;97772.66;;;9.59;93.78
14273;BME280;7220;49.450;11.052;2023-02-23T01:44:07;97770.78;;;9.61;93.17
14273;BME280;7220;49.450;11.052;2023-02-23T01:48:12;97773.53;;;9.59;93.23
14273;BME280;7220;49.450;11.052;2023-02-23T01:52:15;97767.69;;;9.53;93.22
14273;BME280;7220;49.450;11.052;2023-02-23T01:56:21;97765.50;;;9.45;93.90
14273;BME280;7220;49.450;11.052;2023-02-23T02:00:24;97770.84;;;9.43;93.70
14273;BME280;7220;49.450;11.052;2023-02-23T02:04:25;97765.66;;;9.42;93.49
14273;BME280;7220;49.450;11.052;2023-02-23T02:08:29;97774.53;;;9.41;93.64
14273;BME280;7220;49.450;11.052;2023-02-23T02:12:30;97761.97;;;9.44;92.99
14273;BME280;7220;49.450;11.052;2023-02-23T02:21:01;97772.75;;;9.25;94.03
14273;BME280;7220;49.450;11.052;2023-02-23T02:29:44;97760.78;;;9.18;94.61
14273;BME280;7220;49.450;11.052;2023-02-23T02:43:19;97759.16;;;9.15;94.84
14273;BME280;7220;49.450;11.052;2023-02-23T02:47:26;97750.22;;;9.00;95.40
14273;BME280;7220;49.450;11.052;2023-02-23T02:55:49;97748.34;;;9.19;94.61
14273;BME280;7220;49.450;11.052;2023-02-23T02:59:50;97753.75;;;9.17;94.48
14273;BME280;7220;49.450;11.052;2023-02-23T03:04:21;97758.09;;;9.02;95.10
14273;BME280;7220;49.450;11.052;2023-02-23T03:08:51;97761.13;;;9.12;94.95
14273;BME280;7220;49.450;11.052;2023-02-23T03:18:11;97765.78;;;9.07;94.79
14273;BME280;7220;49.450;11.052;2023-02-23T03:22:46;97758.09;;;8.86;96.71
14273;BME280;7220;49.450;11.052;2023-02-23T03:27:23;97764.47;;;8.82;97.29
14273;BME280;7220;49.450;11.052;2023-02-23T03:32:19;97765.97;;;9.04;96.14
14273;BME280;7220;49.450;11.052;2023-02-23T03:36:46;97769.22;;;9.09;95.82
14273;BME280;7220;49.450;11.052;2023-02-23T03:41:10;97772.47;;;9.14;95.11
14273;BME280;7220;49.450;11.052;2023-02-23T03:45:31;97773.00;;;9.05;95.60
14273;BME280;7220;49.450;11.052;2023-02-23T03:49:50;97769.69;;;8.83;97.07
14273;BME280;7220;49.450;11.052;2023-02-23T03:54:15;97773.03;;;8.87;97.05
14273;BME280;7220;49.450;11.052;2023-02-23T03:58:44;97764.66;;;8.95;96.31
14273;BME280;7220;49.450;11.052;2023-02-23T04:03:06;97766.38;;;8.96;96.92
14273;BME280;7220;49.450;11.052;2023-02-23T04:07:28;97771.09;;;9.07;95.47
14273;BME280;7220;49.450;11.052;2023-02-23T04:12:05;97768.19;;;8.95;95.84
14273;BME280;7220;49.450;11.052;2023-02-23T04:16:27;97775.75;;;8.86;96.06
14273;BME280;7220;49.450;11.052;2023-02-23T04:20:28;97772.53;;;8.63;98.05
14273;BME280;7220;49.450;11.052;2023-02-23T04:24:29;97768.88;;;8.65;98.20
14273;BME280;7220;49.450;11.052;2023-02-23T04:28:29;97773.41;;;8.63;98.77
14273;BME280;7220;49.450;11.052;2023-02-23T04:32:30;97768.13;;;8.63;98.37
14273;BME280;7220;49.450;11.052;2023-02-23T04:36:30;97776.66;;;8.68;97.99
14273;BME280;7220;49.450;11.052;2023-02-23T04:40:30;97775.13;;;8.64;98.12
14273;BME280;7220;49.450;11.052;2023-02-23T04:44:31;97776.66;;;8.68;97.90
14273;BME280;7220;49.450;11.052;2023-02-23T04:48:31;97783.59;;;8.53;98.14
14273;BME280;7220;49.450;11.052;2023-02-23T04:52:31;97788.38;;;8.47;98.93
14273;BME280;7220;49.450;11.052;2023-02-23T04:56:33;97787.09;;;8.36;100.00
14273;BME280;7220;49.450;11.052;2023-02-23T05:00:34;97784.00;;;8.28;100.00
14273;BME280;7220;49.450;11.052;2023-02-23T05:04:34;97790.88;;;8.32;100.00
14273;BME280;7220;49.450;11.052;2023-02-23T05:08:34;97781.81;;;8.36;100.00
14273;BME280;7220;49.450;11.052;2023-02-23T05:12:35;97790.47;;;8.40;100.00
14273;BME280;7220;49.450;11.052;2023-02-23T05:16:35;97786.97;;;8.40;100.00
14273;BME280;7220;49.450;11.052;2023-02-23T05:20:36;97791.63;;;8.34;100.00
14273;BME280;7220;49.450;11.052;2023-02-23T05:24:36;97783.53;;;8.37;100.00
14273;BME280;7220;49.450;11.052;2023-02-23T05:28:39;97790.22;;;8.45;100.00
14273;BME280;7220;49.450;11.052;2023-02-23T05:32:40;97787.47;;;8.46;100.00
14273;BME280;7220;49.450;11.052;2023-02-23T05:36:40;97786.03;;;8.41;100.00
14273;BME280;7220;49.450;11.052;2023-02-23T05:40:40;97792.25;;;8.22;100.00
14273;BME280;7220;49.450;11.052;2023-02-23T05:44:41;97791.47;;;8.20;100.00
14273;BME280;7220;49.450;11.052;2023-02-23T05:48:41;97785.16;;;8.23;100.00
14273;BME280;7220;49.450;11.052;2023-02-23T05:52:41;97787.91;;;8.21;100.00
14273;BME280;7220;49.450;11.052;2023-02-23T05:56:42;97801.75;;;8.26;100.00
14273;BME280;7220;49.450;11.052;2023-02-23T06:00:42;97798.97;;;8.47;100.00
14273;BME280;7220;49.450;11.052;2023-02-23T06:04:42;97799.19;;;8.42;100.00
14273;BME280;7220;49.450;11.052;2023-02-23T06:08:43;97798.03;;;8.30;100.00
14273;BME280;7220;49.450;11.052;2023-02-23T06:12:46;97799.41;;;8.37;100.00
14273;BME280;7220;49.450;11.052;2023-02-23T06:16:46;97806.09;;;8.10;100.00
14273;BME280;7220;49.450;11.052;2023-02-23T06:20:47;97809.06;;;8.03;100.00
14273;BME280;7220;49.450;11.052;2023-02-23T06:24:48;97810.78;;;8.04;100.00
14273;BME280;7220;49.450;11.052;2023-02-23T06:28:48;97813.41;;;8.04;100.00
14273;BME280;7220;49.450;11.052;2023-02-23T06:32:49;97819.31;;;8.10;100.00
14273;BME280;7220;49.450;11.052;2023-02-23T06:36:50;97818.41;;;8.11;100.00
14273;BME280;7220;49.450;11.052;2023-02-23T06:40:53;97832.41;;;8.13;100.00
14273;BME280;7220;49.450;11.052;2023-02-23T06:44:53;97828.75;;;8.15;100.00
14273;BME280;7220;49.450;11.052;2023-02-23T06:48:57;97828.84;;;8.31;100.00
14273;BME280;7220;49.450;11.052;2023-02-23T06:52:58;97834.66;;;8.57;100.00
14273;BME280;7220;49.450;11.052;2023-02-23T06:56:59;97839.69;;;8.44;100.00
14273;BME280;7220;49.450;11.052;2023-02-23T07:01:00;97840.53;;;8.45;100.00
14273;BME280;7220;49.450;11.052;2023-02-23T07:05:00;97840.56;;;8.62;100.00
14273;BME280;7220;49.450;11.052;2023-02-23T07:09:00;97853.25;;;8.56;100.00
14273;BME280;7220;49.450;11.052;2023-02-23T07:13:01;97846.00;;;8.59;100.00
14273;BME280;7220;49.450;11.052;2023-02-23T07:17:01;97863.00;;;8.73;100.00
14273;BME280;7220;49.450;11.052;2023-02-23T07:21:01;97861.19;;;8.91;100.00
14273;BME280;7220;49.450;11.052;2023-02-23T07:25:02;97867.09;;;8.96;100.00
14273;BME280;7220;49.450;11.052;2023-02-23T07:29:03;97854.38;;;9.03;100.00
14273;BME280;7220;49.450;11.052;2023-02-23T07:33:03;97859.34;;;9.09;100.00
14273;BME280;7220;49.450;11.052;2023-02-23T07:37:04;97855.44;;;9.16;100.00
14273;BME280;7220;49.450;11.052;2023-02-23T07:41:04;97862.91;;;9.25;100.00
14273;BME280;7220;49.450;11.052;2023-02-23T07:45:05;97859.94;;;8.80;100.00
14273;BME280;7220;49.450;11.052;2023-02-23T07:49:06;97869.13;;;8.91;100.00
14273;BME280;7220;49.450;11.052;2023-02-23T07:53:06;97863.41;;;8.98;100.00
14273;BME280;7220;49.450;11.052;2023-02-23T07:57:06;97859.31;;;8.93;100.00
14273;BME280;7220;49.450;11.052;2023-02-23T08:01:10;97875.03;;;8.96;100.00
14273;BME280;7220;49.450;11.052;2023-02-23T08:05:11;97857.47;;;9.11;100.00
14273;BME280;7220;49.450;11.052;2023-02-23T08:09:11;97865.88;;;9.19;100.00
14273;BME280;7220;49.450;11.052;2023-02-23T08:13:12;97870.56;;;9.14;100.00
14273;BME280;7220;49.450;11.052;2023-02-23T08:17:12;97871.88;;;9.23;100.00
14273;BME280;7220;49.450;11.052;2023-02-23T08:21:12;97867.53;;;9.38;100.00
14273;BME280;7220;49.450;11.052;2023-02-23T08:25:13;97859.31;;;9.26;100.00
14273;BME280;7220;49.450;11.052;2023-02-23T08:29:13;97873.34;;;9.28;100.00
14273;BME280;7220;49.450;11.052;2023-02-23T08:33:13;97870.50;;;9.31;100.00
14273;BME280;7220;49.450;11.052;2023-02-23T08:37:13;97867.88;;;9.31;100.00
14273;BME280;7220;49.450;11.052;2023-02-23T08:41:15;97875.84;;;9.47;100.00
14273;BME280;7220;49.450;11.052;2023-02-23T08:45:15;97869.53;;;9.66;100.00
14273;BME280;7220;49.450;11.052;2023-02-23T08:49:16;97870.31;;;9.84;100.00
14273;BME280;7220;49.450;11.052;2023-02-23T08:53:16;97880.66;;;9.73;100.00
14273;BME280;7220;49.450;11.052;2023-02-23T08:57:17;97872.78;;;9.87;100.00
14273;BME280;7220;49.450;11.052;2023-02-23T09:01:19;97880.69;;;9.89;100.00
14273;BME280;7220;49.450;11.052;2023-02-23T09:05:20;97876.38;;;10.02;100.00
14273;BME280;7220;49.450;11.052;2023-02-23T09:09:21;97878.94;;;10.04;100.00
14273;BME280;7220;49.450;11.052;2023-02-23T09:13:21;97879.88;;;10.03;100.00
14273;BME280;7220;49.450;11.052;2023-02-23T09:17:21;97873.28;;;10.10;100.00
14273;BME280;7220;49.450;11.052;2023-02-23T09:21:22;97880.72;;;10.19;100.00
14273;BME280;7220;49.450;11.052;2023-02-23T09:25:24;97885.03;;;10.06;100.00
14273;BME280;7220;49.450;11.052;2023-02-23T09:29:24;97882.53;;;10.03;100.00
14273;BME280;7220;49.450;11.052;2023-02-23T09:33:24;97888.47;;;10.08;100.00
14273;BME280;7220;49.450;11.052;2023-02-23T09:37:25;97883.81;;;9.95;100.00
14273;BME280;7220;49.450;11.052;2023-02-23T09:41:45;97884.44;;;10.01;100.00
14273;BME280;7220;49.450;11.052;2023-02-23T09:45:53;97893.16;;;10.03;100.00
14273;BME280;7220;49.450;11.052;2023-02-23T09:49:56;97880.72;;;10.19;100.00
14273;BME280;7220;49.450;11.052;2023-02-23T09:53:59;97887.66;;;10.22;100.00
14273;BME280;7220;49.450;11.052;2023-02-23T09:58:06;97882.41;;;10.36;100.00
14273;BME280;7220;49.450;11.052;2023-02-23T10:02:33;97883.94;;;10.56;100.00
14273;BME280;7220;49.450;11.052;2023-02-23T10:06:39;97884.53;;;10.62;100.00
14273;BME280;7220;49.450;11.052;2023-02-23T10:10:43;97894.13;;;10.79;100.00
14273;BME280;7220;49.450;11.052;2023-02-23T10:19:02;97886.28;;;10.92;100.00
14273;BME280;7220;49.450;11.052;2023-02-23T10:23:08;97892.00;;;11.00;100.00
14273;BME280;7220;49.450;11.052;2023-02-23T10:27:19;97898.94;;;11.02;100.00
14273;BME280;7220;49.450;11.052;2023-02-23T10:31:33;97881.19;;;11.03;100.00
14273;BME280;7220;49.450;11.052;2023-02-23T10:35:37;97901.78;;;10.85;100.00
14273;BME280;7220;49.450;11.052;2023-02-23T10:39:39;97894.09;;;11.09;100.00
14273;BME280;7220;49.450;11.052;2023-02-23T10:43:40;97898.31;;;11.13;100.00
14273;BME280;7220;49.450;11.052;2023-02-23T10:47:40;97889.56;;;11.26;100.00
14273;BME280;7220;49.450;11.052;2023-02-23T10:51:41;97890.34;;;11.28;100.00
14273;BME280;7220;49.450;11.052;2023-02-23T10:55:44;97902.66;;;11.14;100.00
14273;BME280;7220;49.450;11.052;2023-02-23T11:04:21;97896.31;;;11.17;100.00
14273;BME280;7220;49.450;11.052;2023-02-23T11:08:34;97893.56;;;11.18;100.00
14273;BME280;7220;49.450;11.052;2023-02-23T11:12:39;97891.47;;;11.24;100.00
14273;BME280;7220;49.450;11.052;2023-02-23T11:16:42;97894.78;;;11.13;100.00
14273;BME280;7220;49.450;11.052;2023-02-23T11:20:43;97888.13;;;11.05;100.00
14273;BME280;7220;49.450;11.052;2023-02-23T11:24:43;97889.94;;;11.05;100.00
14273;BME280;7220;49.450;11.052;2023-02-23T11:28:51;97875.66;;;11.06;100.00
14273;BME280;7220;49.450;11.052;2023-02-23T11:32:58;97880.63;;;11.12;100.00
14273;BME280;7220;49.450;11.052;2023-02-23T11:37:21;97867.63;;;11.22;100.00
14273;BME280;7220;49.450;11.052;2023-02-23T11:41:23;97869.22;;;11.39;100.00
14273;BME280;7220;49.450;11.052;2023-02-23T11:45:25;97864.66;;;11.41;100.00
14273;BME280;7220;49.450;11.052;2023-02-23T11:49:30;97856.97;;;11.51;100.00
14273;BME280;7220;49.450;11.052;2023-02-23T11:53:36;97857.69;;;11.67;100.00
14273;BME280;7220;49.450;11.052;2023-02-23T11:57:39;97854.47;;;11.62;100.00
14273;BME280;7220;49.450;11.052;2023-02-23T12:01:42;97855.09;;;11.80;99.72
14273;BME280;7220;49.450;11.052;2023-02-23T12:05:49;97855.16;;;11.51;100.00
14273;BME280;7220;49.450;11.052;2023-02-23T12:10:06;97856.19;;;11.63;100.00
14273;BME280;7220;49.450;11.052;2023-02-23T12:23:03;97859.03;;;11.60;99.99
14273;BME280;7220;49.450;11.052;2023-02-23T12:27:20;97848.47;;;11.73;99.74
14273;BME280;7220;49.450;11.052;2023-02-23T12:31:57;97854.38;;;11.64;99.43
14273;BME280;7220;49.450;11.052;2023-02-23T12:40:25;97836.13;;;11.58;100.00
14273;BME280;7220;49.450;11.052;2023-02-23T12:52:54;97829.91;;;11.86;99.02
14273;BME280;7220;49.450;11.052;2023-02-23T13:01:11;97825.53;;;11.85;99.13
14273;BME280;7220;49.450;11.052;2023-02-23T13:05:32;97813.09;;;11.86;100.00
14273;BME280;7220;49.450;11.052;2023-02-23T13:09:56;97804.66;;;12.06;98.52
14273;BME280;7220;49.450;11.052;2023-02-23T13:14:08;97808.28;;;12.05;97.92
14273;BME280;7220;49.450;11.052;2023-02-23T13:30:59;97807.25;;;12.21;96.49
14273;BME280;7220;49.450;11.052;2023-02-23T13:35:06;97804.94;;;12.29;96.15
14273;BME280;7220;49.450;11.052;2023-02-23T13:43:43;97795.03;;;12.31;96.45
14273;BME280;7220;49.450;11.052;2023-02-23T13:47:54;97793.75;;;12.24;97.14
14273;BME280;7220;49.450;11.052;2023-02-23T13:52:08;97793.84;;;12.35;96.02
14273;BME280;7220;49.450;11.052;2023-02-23T13:56:21;97789.63;;;12.58;94.91
14273;BME280;7220;49.450;11.052;2023-02-23T14:00:23;97787.31;;;12.80;92.59
14273;BME280;7220;49.450;11.052;2023-02-23T14:04:26;97784.44;;;12.70;93.14
14273;BME280;7220;49.450;11.052;2023-02-23T14:08:36;97783.44;;;12.58;93.61
14273;BME280;7220;49.450;11.052;2023-02-23T14:13:02;97792.63;;;12.54;93.71
14273;BME280;7220;49.450;11.052;2023-02-23T14:21:28;97782.56;;;12.31;93.88
14273;BME280;7220;49.450;11.052;2023-02-23T14:29:40;97778.91;;;12.20;93.42
14273;BME280;7220;49.450;11.052;2023-02-23T14:37:41;97782.09;;;11.84;95.40
14273;BME280;7220;49.450;11.052;2023-02-23T14:42:13;97769.81;;;11.82;96.56
14273;BME280;7220;49.450;11.052;2023-02-23T14:46:20;97763.44;;;11.84;96.19
14273;BME280;7220;49.450;11.052;2023-02-23T14:50:30;97771.22;;;11.88;96.10
14273;BME280;7220;49.450;11.052;2023-02-23T14:54:34;97775.47;;;11.77;97.45
14273;BME280;7220;49.450;11.052;2023-02-23T14:58:35;97773.75;;;11.62;98.06
14273;BME280;7220;49.450;11.052;2023-02-23T15:02:35;97772.09;;;11.61;99.30
14273;BME280;7220;49.450;11.052;2023-02-23T15:06:40;97778.91;;;11.65;99.46
14273;BME280;7220;49.450;11.052;2023-02-23T15:10:42;97784.59;;;11.73;99.55
14273;BME280;7220;49.450;11.052;2023-02-23T15:14:45;97775.75;;;11.73;99.93
14273;BME280;7220;49.450;11.052;2023-02-23T15:18:48;97776.47;;;11.75;100.00
14273;BME280;7220;49.450;11.052;2023-02-23T15:22:51;97776.19;;;11.79;100.00
14273;BME280;7220;49.450;11.052;2023-02-23T15:26:55;97785.78;;;11.82;100.00
14273;BME280;7220;49.450;11.052;2023-02-23T15:30:59;97776.94;;;11.81;100.00
14273;BME280;7220;49.450;11.052;2023-02-23T15:35:00;97776.59;;;11.73;100.00
14273;BME280;7220;49.450;11.052;2023-02-23T15:39:05;97774.44;;;11.65;100.00
14273;BME280;7220;49.450;11.052;2023-02-23T15:43:09;97775.53;;;11.48;100.00
14273;BME280;7220;49.450;11.052;2023-02-23T15:47:21;97779.78;;;11.51;100.00
14273;BME280;7220;49.450;11.052;2023-02-23T15:51:34;97778.75;;;11.39;100.00
14273;BME280;7220;49.450;11.052;2023-02-23T15:55:36;97781.50;;;11.52;100.00
14273;BME280;7220;49.450;11.052;2023-02-23T15:59:38;97775.13;;;11.55;100.00
14273;BME280;7220;49.450;11.052;2023-02-23T16:03:40;97772.31;;;11.43;100.00
14273;BME280;7220;49.450;11.052;2023-02-23T16:07:45;97775.16;;;11.40;100.00
14273;BME280;7220;49.450;11.052;2023-02-23T16:11:54;97782.84;;;11.45;100.00
14273;BME280;7220;49.450;11.052;2023-02-23T16:15:55;97786.28;;;11.47;100.00
14273;BME280;7220;49.450;11.052;2023-02-23T16:24:13;97788.63;;;11.51;100.00
14273;BME280;7220;49.450;11.052;2023-02-23T16:28:32;97796.28;;;11.29;100.00
14273;BME280;7220;49.450;11.052;2023-02-23T16:32:36;97791.22;;;11.39;100.00
14273;BME280;7220;49.450;11.052;2023-02-23T16:36:37;97784.31;;;11.36;100.00
14273;BME280;7220;49.450;11.052;2023-02-23T16:40:40;97786.13;;;11.21;100.00
14273;BME280;7220;49.450;11.052;2023-02-23T16:44:40;97784.31;;;11.22;100.00
14273;BME280;7220;49.450;11.052;2023-02-23T16:48:41;97789.53;;;11.23;100.00
14273;BME280;7220;49.450;11.052;2023-02-23T16:52:41;97787.72;;;11.24;100.00
14273;BME280;7220;49.450;11.052;2023-02-23T16:56:45;97789.16;;;11.29;100.00
14273;BME280;7220;49.450;11.052;2023-02-23T17:00:46;97796.38;;;11.27;100.00
14273;BME280;7220;49.450;11.052;2023-02-23T17:04:48;97790.22;;;11.12;100.00
14273;BME280;7220;49.450;11.052;2023-02-23T17:08:49;97791.63;;;11.18;100.00
14273;BME280;7220;49.450;11.052;2023-02-23T17:12:54;97794.00;;;11.23;100.00
14273;BME280;7220;49.450;11.052;2023-02-23T17:16:55;97800.19;;;11.23;100.00
14273;BME280;7220;49.450;11.052;2023-02-23T17:20:59;97794.19;;;11.19;100.00
14273;BME280;7220;49.450;11.052;2023-02-23T17:25:00;97798.09;;;11.14;100.00
14273;BME280;7220;49.450;11.052;2023-02-23T17:29:02;97805.50;;;11.23;100.00
14273;BME280;7220;49.450;11.052;2023-02-23T17:33:03;97789.53;;;11.23;100.00
14273;BME280;7220;49.450;11.052;2023-02-23T17:37:04;97791.25;;;11.24;100.00
14273;BME280;7220;49.450;11.052;2023-02-23T17:41:07;97801.97;;;11.08;100.00
14273;BME280;7220;49.450;11.052;2023-02-23T17:45:09;97796.09;;;11.17;100.00
14273;BME280;7220;49.450;11.052;2023-02-23T17:49:09;97795.72;;;11.09;100.00
14273;BME280;7220;49.450;11.052;2023-02-23T17:53:09;97801.31;;;10.90;100.00
14273;BME280;7220;49.450;11.052;2023-02-23T17:57:10;97791.91;;;10.99;100.00
14273;BME280;7220;49.450;11.052;2023-02-23T18:01:10;97798.84;;;10.72;100.00
14273;BME280;7220;49.450;11.052;2023-02-23T18:05:11;97797.22;;;10.70;100.00
14273;BME280;7220;49.450;11.052;2023-02-23T18:09:12;97806.69;;;10.60;100.00
14273;BME280;7220;49.450;11.052;2023-02-23T18:13:13;97792.47;;;10.61;100.00
14273;BME280;7220;49.450;11.052;2023-02-23T18:17:15;97805.84;;;10.59;100.00
14273;BME280;7220;49.450;11.052;2023-02-23T18:21:18;97803.34;;;10.41;100.00
14273;BME280;7220;49.450;11.052;2023-02-23T18:25:24;97804.69;;;10.49;100.00
14273;BME280;7220;49.450;11.052;2023-02-23T18:29:26;97801.91;;;10.50;100.00
14273;BME280;7220;49.450;11.052;2023-02-23T18:33:29;97822.03;;;10.40;100.00
14273;BME280;7220;49.450;11.052;2023-02-23T18:37:30;97810.53;;;10.39;100.00
14273;BME280;7220;49.450;11.052;2023-02-23T18:41:31;97807.34;;;10.63;100.00
14273;BME280;7220;49.450;11.052;2023-02-23T18:45:32;97808.91;;;10.67;100.00
14273;BME280;7220;49.450;11.052;2023-02-23T18:49:32;97803.75;;;10.50;100.00
14273;BME280;7220;49.450;11.052;2023-02-23T18:53:33;97800.25;;;10.49;100.00
14273;BME280;7220;49.450;11.052;2023-02-23T18:57:36;97785.63;;;10.56;100.00
14273;BME280;7220;49.450;11.052;2023-02-23T19:01:36;97782.78;;;10.60;100.00
14273;BME280;7220;49.450;11.052;2023-02-23T19:05:42;97777.28;;;10.48;100.00
14273;BME280;7220;49.450;11.052;2023-02-23T19:09:44;97786.47;;;10.43;100.00
14273;BME280;7220;49.450;11.052;2023-02-23T19:13:54;97782.84;;;10.44;100.00
14273;BME280;7220;49.450;11.052;2023-02-23T19:17:55;97775.28;;;10.52;100.00
14273;BME280;7220;49.450;11.052;2023-02-23T19:21:56;97779.44;;;10.56;100.00
14273;BME280;7220;49.450;11.052;2023-02-23T19:25:57;97781.84;;;10.75;100.00
14273;BME280;7220;49.450;11.052;2023-02-23T19:30:01;97781.25;;;10.55;100.00
14273;BME280;7220;49.450;11.052;2023-02-23T19:34:01;97783.38;;;10.65;100.00
14273;BME280;7220;49.450;11.052;2023-02-23T19:38:04;97774.81;;;10.60;100.00
14273;BME280;7220;49.450;11.052;2023-02-23T19:42:04;97778.41;;;10.58;100.00
14273;BME280;7220;49.450;11.052;2023-02-23T19:46:06;97783.06;;;10.55;100.00
14273;BME280;7220;49.450;11.052;2023-02-23T19:50:10;97780.50;;;10.53;100.00
14273;BME280;7220;49.450;11.052;2023-02-23T19:54:10;97779.38;;;10.57;100.00
14273;BME280;7220;49.450;11.052;2023-02-23T19:58:11;97774.50;;;10.50;100.00
14273;BME280;7220;49.450;11.052;2023-02-23T20:02:12;97783.31;;;10.05;100.00
14273;BME280;7220;49.450;11.052;2023-02-23T20:06:14;97778.56;;;10.10;100.00
14273;BME280;7220;49.450;11.052;2023-02-23T20:10:15;97787.56;;;10.08;100.00
14273;BME280;7220;49.450;11.052;2023-02-23T20:14:15;97788.50;;;10.07;100.00
14273;BME280;7220;49.450;11.052;2023-02-23T20:18:16;97791.78;;;10.26;100.00
14273;BME280;7220;49.450;11.052;2023-02-23T20:22:16;97784.66;;;10.13;100.00
14273;BME280;7220;49.450;11.052;2023-02-23T20:26:26;97790.03;;;10.11;100.00
14273;BME280;7220;49.450;11.052;2023-02-23T20:30:26;97777.47;;;9.99;100.00
14273;BME280;7220;49.450;11.052;2023-02-23T20:34:27;97785.25;;;10.02;100.00
14273;BME280;7220;49.450;11.052;2023-02-23T20:38:28;97778.94;;;9.88;100.00
14273;BME280;7220;49.450;11.052;2023-02-23T20:42:28;97781.38;;;9.77;100.00
14273;BME280;7220;49.450;11.052;2023-02-23T20:46:29;97773.41;;;9.77;100.00
14273;BME280;7220;49.450;11.052;2023-02-23T20:50:29;97756.94;;;9.86;100.00
14273;BME280;7220;49.450;11.052;2023-02-23T20:54:32;97759.44;;;9.89;100.00
14273;BME280;7220;49.450;11.052;2023-02-23T20:58:32;97766.97;;;9.81;100.00
14273;BME280;7220;49.450;11.052;2023-02-23T21:02:33;97768.19;;;9.75;100.00
14273;BME280;7220;49.450;11.052;2023-02-23T21:06:34;97764.16;;;9.68;100.00
14273;BME280;7220;49.450;11.052;2023-02-23T21:10:36;97766.81;;;9.68;100.00
14273;BME280;7220;49.450;11.052;2023-02-23T21:14:37;97756.53;;;9.78;100.00
14273;BME280;7220;49.450;11.052;2023-02-23T21:18:38;97766.41;;;9.60;100.00
14273;BME280;7220;49.450;11.052;2023-02-23T21:22:38;97764.53;;;9.62;100.00
14273;BME280;7220;49.450;11.052;2023-02-23T21:26:39;97765.31;;;9.64;100.00
14273;BME280;7220;49.450;11.052;2023-02-23T21:30:39;97767.19;;;9.62;100.00
14273;BME280;7220;49.450;11.052;2023-02-23T21:34:40;97767.59;;;9.70;100.00
14273;BME280;7220;49.450;11.052;2023-02-23T21:38:42;97764.78;;;9.73;100.00
14273;BME280;7220;49.450;11.052;2023-02-23T21:42:43;97762.03;;;9.75;100.00
14273;BME280;7220;49.450;11.052;2023-02-23T21:46:43;97776.09;;;9.45;100.00
14273;BME280;7220;49.450;11.052;2023-02-23T21:50:43;97763.09;;;9.40;100.00
14273;BME280;7220;49.450;11.052;2023-02-23T21:54:48;97763.59;;;9.47;100.00
14273;BME280;7220;49.450;11.052;2023-02-23T21:58:51;97768.81;;;9.32;100.00
14273;BME280;7220;49.450;11.052;2023-02-23T22:02:52;97772.81;;;9.40;100.00
14273;BME280;7220;49.450;11.052;2023-02-23T22:06:52;97770.63;;;9.32;100.00
14273;BME280;7220;49.450;11.052;2023-02-23T22:10:52;97772.59;;;9.28;100.00
14273;BME280;7220;49.450;11.052;2023-02-23T22:14:53;97767.19;;;9.30;100.00
14273;BME280;7220;49.450;11.052;2023-02-23T22:18:53;97783.28;;;9.43;100.00
14273;BME280;7220;49.450;11.052;2023-02-23T22:22:53;97772.38;;;9.63;100.00
14273;BME280;7220;49.450;11.052;2023-02-23T22:26:54;97758.88;;;9.68;100.00
14273;BME280;7220;49.450;11.052;2023-02-23T22:30:54;97758.97;;;9.35;100.00
14273;BME280;7220;49.450;11.052;2023-02-23T22:34:55;97755.22;;;9.23;100.00
14273;BME280;7220;49.450;11.052;2023-02-23T22:38:59;97746.50;;;9.37;100.00
14273;BME280;7220;49.450;11.052;2023-02-23T22:42:59;97754.19;;;9.25;100.00
14273;BME280;7220;49.450;11.052;2023-02-23T22:46:59;97752.38;;;9.26;100.00
14273;BME280;7220;49.450;11.052;2023-02-23T22:51:00;97741.69;;;9.27;100.00
14273;BME280;7220;49.450;11.052;2023-02-23T22:55:00;97738.81;;;9.32;100.00
14273;BME280;7220;49.450;11.052;2023-02-23T22:59:02;97730.59;;;9.37;100.00
14273;BME280;7220;49.450;11.052;2023-02-23T23:03:09;97717.84;;;9.27;100.00
14273;BME280;7220;49.450;11.052;2023-02-23T23:07:12;97727.31;;;9.47;100.00